Underwood, IA (51576)

11:08 AM CST on December 11, 2017 (GMT -0600)
TAZ'S CrazyTown Farm | | Change Station
Active Advisory: Wind Advisory

Elev 1214 ft 41.42 °N, 95.77 °W | Updated 11 seconds ago

Overcast
Overcast
46.0 °F
Feels Like 37 °F
N
25.0
Wind Variable Wind from NW
Gusts 40.0 mph

Today
High -- | Low -- °F
--% Chance of Precip.
Yesterday
High -- | Low -- °F
Precip. -- in
Pressure 29.95 in
Visibility 10.0 miles
Clouds Overcast 4100 ft
Windchill 37 °F
Dew Point 34 °F
Humidity 62%
Rainfall 0.00 in
Snow Depth Not available.
7:38 AM 4:53 PM
Waning Crescent, 36% visible
METAR KCBF 111655Z AUTO 32023G38KT 10SM OVC041 08/M00 A2995 RMK AO2
Pressure 29.95 in
Visibility 10.0 miles
Clouds Overcast 4100 ft
Windchill 37 °F
Dew Point 34 °F
Humidity 62%
Rainfall 0.00 in
Snow Depth Not available.
7:38 AM 4:53 PM
Waning Crescent, 36% visible
METAR KCBF 111655Z AUTO 32023G38KT 10SM OVC041 08/M00 A2995 RMK AO2

Get Your Daily Forecast Email!

Thanks for signing up!

Be on the lookout for a verification email in your inbox.

You'll start receiving severe weather alerts in your inbox..

×

10-Day Weather Forecast

Almanac

Astronomy

Dec. 11, 2017 Rise Set
Actual Time
Civil Twilight
Nautical Twilight
Astronomical Twilight
Moon
Length of Visible Light
Length of Day
Tomorrow will be .
, % of the Moon is Illuminated

Today's Extremes

State Highs State Lows

Community

WunderPhotos

Category 6

Welcome to Category 6. This is the collective home for Weather Underground's featured writeups by Dr. Jeff Masters (right), Bob Henson (left), Chris Burt, and other regular contributors.

Nearby

Air Quality

  Air Quality AQ Index Pollutant
Not available.

Snow Depth

Station Depth Elevation

Earthquake Activity

City Distance Mag. Time & Date
Minimum magnitude displayed is 2.5.

Coastal Water Temperatures

Place Temperature

Stations

Nearby Weather Stations

Station Location Temp. Windchill Dew Point Humidity Wind Precip. Elev Updated Type
                   

Watches & Warnings

Wind Advisory
Issued: 2:45 AM CST Dec. 11, 2017 – National Weather Service

... Wind Advisory in effect from 10 am this morning to 6 PM CST
this evening...

The National Weather Service in Omaha/valley has issued a Wind
Advisory, which is in effect from 10 am this morning to 6 PM CST
this evening.

* Timing... from mid morning through this afternoon.

* Winds... northwest at 30 to 35 mph with gusts to 40 to 45 mph.

* Impacts... winds this strong can make driving difficult,
especially those operating high-profile vehicles. Tie down
loose items that might be blown about, and secure Holiday
decorations if possible.

Precautionary/preparedness actions...

A Wind Advisory means that winds of 30 to 39 mph are expected for
one hour or longer, or winds of 45 to 57 mph for any duration.